This is the latest recevied weather packets stored in our database for station/object SA6BET-2. If no packets are shown the sender has not sent any weather packets the latest 10 day(s).
| Time | Temp. | Humidity | Pressure | Rain* | Wind** | Luminosity | Snow |
|---|---|---|---|---|---|---|---|
| 1787925130 | 25° C | 100% | 1019.7 hPa | - | - | - | - |
| 1787924230 | 25° C | 100% | 1017.8 hPa | - | - | - | - |
| 1787923330 | 26.11° C | 81% | 1020.3 hPa | - | - | - | - |
| 1787922430 | 26.11° C | 82% | 1020.6 hPa | - | - | - | - |
| 1787921529 | 25.56° C | 91% | 1021.4 hPa | - | - | - | - |
| 1787920629 | 25° C | 92% | 1021.8 hPa | - | - | - | - |
| 1787919729 | 25° C | 96% | 1021.7 hPa | - | - | - | - |
| 1787918829 | 25.56° C | 98% | 1021.6 hPa | - | - | - | - |
| 1787917929 | 26.11° C | 100% | 1020.3 hPa | - | - | - | - |
| 1787917029 | 25.56° C | 100% | 1022.6 hPa | - | - | - | - |
| 1787916128 | 25° C | 100% | 1021.8 hPa | - | - | - | - |
| 1787915228 | 25° C | 100% | 1020.7 hPa | - | - | - | - |
| 1787914328 | 24.44° C | 100% | 1019.9 hPa | - | - | - | - |
| 1787913428 | 23.89° C | 100% | 1019.3 hPa | - | - | - | - |
| 1787912528 | 23.33° C | 100% | 1020.2 hPa | - | - | - | - |
| 1787911628 | 23.33° C | 100% | 1021.6 hPa | - | - | - | - |
| 1787910727 | 23.33° C | 100% | 1021.8 hPa | - | - | - | - |
| 1787909827 | 23.33° C | 100% | 1022 hPa | - | - | - | - |
| 1787908927 | 23.33° C | 100% | 1020.9 hPa | - | - | - | - |
| 1787908027 | 23.33° C | 100% | 1020.3 hPa | - | - | - | - |
| 1787907127 | 23.89° C | 100% | 1020.5 hPa | - | - | - | - |
| 1787906227 | 23.33° C | 100% | 1021.5 hPa | - | - | - | - |
| 1787905326 | 23.33° C | 100% | 1021.5 hPa | - | - | - | - |
| 1787904426 | 23.89° C | 100% | 1021.3 hPa | - | - | - | - |
| 1787903526 | 23.89° C | 100% | 1021.2 hPa | - | - | - | - |
* Rain since midnight (hover to see other rain measurements)
** Current wind speed in m/s (hover to see current wind gust speed)